Time;durP1;ratioP1;P1;durP2;ratioP2;P2;SDS_P1;SDS_P2;PMS_P1;PMS_P2;Temp;Humidity;BMP_temperature;BMP_pressure;BME280_temperature;BME280_humidity;BME280_pressure;Samples;Min_cycle;Max_cycle;Signal;HPM_P1;HPM_P2
2022/01/25 03:46:38;;;;;;;73.25;37.80;;;3.10;99.90;;;;;;5291944;24;20096;-82
2022/01/25 03:51:50;;;;;;;72.55;39.05;;;3.10;99.90;;;;;;4787120;30;20118;-82
2022/01/25 03:54:16;;;;;;;79.45;38.88;;;3.10;99.90;;;;;;4799891;30;20043;-81
2022/01/25 03:56:42;;;;;;;67.20;37.00;;;3.10;99.90;;;;;;4785117;30;20051;-81
2022/01/25 03:59:08;;;;;;;73.50;38.67;;;3.20;99.90;;;;;;4793893;30;20351;-82
2022/01/25 04:01:35;;;;;;;67.53;36.70;;;3.20;99.90;;;;;;4769483;30;20042;-82
2022/01/25 04:04:02;;;;;;;65.57;35.30;;;3.20;99.90;;;;;;4799199;30;20035;-82
2022/01/25 04:06:31;;;;;;;70.88;37.00;;;3.10;99.90;;;;;;4766720;30;20118;-82
2022/01/25 04:08:58;;;;;;;75.90;39.60;;;3.10;99.90;;;;;;4782252;30;20230;-82
2022/01/25 04:11:24;;;;;;;;;;;3.10;99.90;;;;;;4793772;30;20035;-82
2022/01/25 04:13:52;;;;;;;71.47;37.53;;;3.10;99.90;;;;;;4784261;30;19914;-82
2022/01/25 04:16:23;;;;;;;84.97;38.70;;;3.10;99.90;;;;;;4798780;30;20043;-82
2022/01/25 04:26:36;;;;;;;72.28;38.67;;;3.20;99.90;;;;;;4788507;29;20114;-82
2022/01/25 04:29:02;;;;;;;68.55;37.38;;;3.20;99.90;;;;;;4767679;30;20043;-82
2022/01/25 04:31:28;;;;;;;69.20;38.13;;;3.30;99.90;;;;;;4798851;30;20057;-82
2022/01/25 04:34:08;;;;;;;70.57;36.55;;;3.30;99.90;;;;;;4769034;30;20032;-82
2022/01/25 04:50:24;;;;;;;70.35;37.88;;;3.30;99.60;;;;;;4786071;30;20044;-81
2022/01/25 04:53:00;;;;;;;67.30;38.15;;;3.30;99.70;;;;;;4768289;30;20115;-82
2022/01/25 04:55:30;;;;;;;75.63;38.28;;;3.30;99.90;;;;;;4784835;30;20079;-82
2022/01/25 04:58:03;;;;;;;74.32;39.75;;;3.30;99.80;;;;;;4765874;30;20115;-82
2022/01/25 05:00:30;;;;;;;73.13;40.25;;;3.30;99.90;;;;;;4783256;30;20227;-82
2022/01/25 05:03:09;;;;;;;71.80;38.17;;;3.30;99.90;;;;;;4799261;30;20035;-82
2022/01/25 05:05:41;;;;;;;82.22;42.17;;;3.30;99.90;;;;;;4785100;30;20043;-82
2022/01/25 05:11:14;;;;;;;73.15;39.85;;;3.40;99.90;;;;;;4744086;30;20044;-82
2022/01/25 05:13:50;;;;;;;80.10;42.85;;;3.40;99.90;;;;;;4759032;30;20044;-82
2022/01/25 05:16:28;;;;;;;79.47;41.75;;;3.40;99.90;;;;;;4733746;30;20048;-82
2022/01/25 05:19:09;;;;;;;74.30;39.90;;;3.40;99.90;;;;;;4739028;30;20064;-82
2022/01/25 05:24:20;;;;;;;86.10;40.92;;;3.40;99.90;;;;;;4734310;30;20032;-81
2022/01/25 05:26:46;;;;;;;86.83;44.37;;;3.40;99.90;;;;;;4746622;30;20235;-82
2022/01/25 05:29:12;;;;;;;73.43;40.17;;;3.40;99.90;;;;;;4746807;30;20036;-81
2022/01/25 05:31:39;;;;;;;75.70;40.63;;;3.40;99.90;;;;;;4731383;30;20183;-81
2022/01/25 05:34:07;;;;;;;88.78;45.83;;;3.50;99.90;;;;;;4746666;30;20343;-82
2022/01/25 05:36:33;;;;;;;83.00;44.67;;;3.50;99.90;;;;;;4716416;30;20040;-81
2022/01/25 05:39:03;;;;;;;79.85;42.60;;;3.60;99.90;;;;;;4731359;30;20040;-81
2022/01/25 05:41:31;;;;;;;84.95;43.38;;;3.60;99.90;;;;;;4714656;30;20111;-81
2022/01/25 05:44:22;;;;;;;85.78;45.85;;;3.50;99.70;;;;;;4730346;30;20067;-81
2022/01/25 05:49:23;;;;;;;81.95;44.42;;;3.40;99.90;;;;;;4783961;30;20326;-81
2022/01/25 05:51:50;;;;;;;86.27;46.10;;;3.40;99.90;;;;;;4764524;30;20070;-81
2022/01/25 05:54:16;;;;;;;89.50;46.42;;;3.40;99.90;;;;;;4782482;30;20031;-81
2022/01/25 05:56:42;;;;;;;85.03;46.92;;;3.40;99.90;;;;;;4767461;30;20360;-81
2022/01/25 05:59:08;;;;;;;87.32;45.00;;;3.50;99.90;;;;;;4764582;30;20031;-81
2022/01/25 06:01:35;;;;;;;99.80;50.55;;;3.60;99.90;;;;;;4779297;30;20265;-81
2022/01/25 06:04:02;;;;;;;116.60;59.28;;;3.60;99.90;;;;;;4782332;30;20249;-81
2022/01/25 06:06:29;;;;;;;107.47;56.22;;;3.60;99.90;;;;;;4797253;30;20349;-80
2022/01/25 06:08:55;;;;;;;;;;;3.60;99.90;;;;;;4782987;30;20088;-81
2022/01/25 06:11:21;;;;;;;;;;;3.60;99.90;;;;;;4782701;30;19920;-81
2022/01/25 06:13:47;;;;;;;103.90;51.83;;;3.60;99.90;;;;;;4782101;30;20216;-81
2022/01/25 06:16:13;;;;;;;114.35;54.15;;;3.60;99.90;;;;;;4796967;30;20042;-81
2022/01/25 06:18:39;;;;;;;109.28;51.63;;;3.70;99.90;;;;;;4784157;29;20107;-81
2022/01/25 06:21:05;;;;;;;126.80;53.35;;;3.70;99.90;;;;;;4774438;30;20048;-82
2022/01/25 06:23:31;;;;;;;120.07;54.58;;;3.70;99.90;;;;;;4802561;29;20024;-82
2022/01/25 06:25:56;;;;;;;141.05;59.85;;;3.70;99.90;;;;;;4787999;30;20068;-83
2022/01/25 06:28:22;;;;;;;131.85;60.35;;;3.70;99.90;;;;;;4765617;30;20040;-82
2022/01/25 06:30:49;;;;;;;174.75;77.13;;;3.70;99.90;;;;;;4781829;30;20073;-82
2022/01/25 06:33:17;;;;;;;163.43;75.57;;;3.70;99.90;;;;;;4778235;30;20157;-82
2022/01/25 06:35:45;;;;;;;160.02;73.82;;;3.80;99.90;;;;;;4771294;30;20099;-82
2022/01/25 06:38:12;;;;;;;144.02;66.18;;;3.90;99.90;;;;;;4782273;30;20031;-82
2022/01/25 06:40:38;;;;;;;141.60;62.38;;;3.90;99.90;;;;;;4776416;30;20027;-82
2022/01/25 06:43:04;;;;;;;127.15;58.30;;;3.90;99.90;;;;;;4758565;30;20073;-82
2022/01/25 06:45:30;;;;;;;138.27;58.05;;;3.90;99.90;;;;;;4796033;29;20076;-82
2022/01/25 06:47:55;;;;;;;128.15;55.60;;;3.90;99.90;;;;;;4790701;30;20051;-82
2022/01/25 06:50:25;;;;;;;128.02;55.17;;;3.90;99.90;;;;;;4774511;30;20098;-82
2022/01/25 06:52:51;;;;;;;130.75;54.67;;;3.90;99.90;;;;;;4793101;30;20036;-82
2022/01/25 06:55:19;;;;;;;128.52;54.22;;;3.90;99.90;;;;;;4777446;30;20038;-82
2022/01/25 06:57:45;;;;;;;123.03;52.05;;;3.90;99.90;;;;;;4774018;30;20023;-82
2022/01/25 07:00:22;;;;;;;125.63;52.30;;;3.90;99.90;;;;;;4763485;30;20079;-82
2022/01/25 07:02:49;;;;;;;123.05;53.75;;;3.90;99.90;;;;;;4779905;30;20035;-82
2022/01/25 07:05:15;;;;;;;125.60;50.55;;;3.90;99.90;;;;;;4760824;30;20284;-82
2022/01/25 07:07:42;;;;;;;124.82;50.40;;;4.00;99.90;;;;;;4765533;30;20036;-82
2022/01/25 07:10:08;;;;;;;120.88;49.92;;;4.00;99.90;;;;;;4761750;30;20039;-82
2022/01/25 07:12:35;;;;;;;132.82;51.70;;;4.00;99.90;;;;;;4772207;30;20057;-82
2022/01/25 07:15:04;;;;;;;124.75;49.35;;;4.00;99.90;;;;;;4777641;30;20369;-82
2022/01/25 07:17:29;;;;;;;112.97;48.30;;;3.90;99.90;;;;;;4790050;30;20027;-82
2022/01/25 07:19:55;;;;;;;122.60;49.20;;;4.00;99.90;;;;;;4751006;30;20085;-82
2022/01/25 07:22:21;;;;;;;109.28;46.00;;;4.00;99.90;;;;;;4758787;30;20055;-82
2022/01/25 07:24:47;;;;;;;111.55;45.60;;;4.00;99.90;;;;;;4748092;30;20039;-82
2022/01/25 07:27:12;;;;;;;112.88;49.78;;;4.00;99.90;;;;;;4778292;30;20286;-82
2022/01/25 07:29:38;;;;;;;109.78;46.00;;;4.00;99.90;;;;;;4780105;30;20035;-82
2022/01/25 07:32:04;;;;;;;106.00;44.60;;;4.00;99.90;;;;;;4780598;30;20291;-81
2022/01/25 07:34:30;;;;;;;92.57;42.00;;;4.10;99.90;;;;;;4779965;30;20035;-82
2022/01/25 07:36:56;;;;;;;103.55;44.40;;;4.10;99.90;;;;;;4794392;30;20031;-82
2022/01/25 07:39:22;;;;;;;96.22;42.17;;;4.10;99.90;;;;;;4780405;30;20031;-82
2022/01/25 07:41:48;;;;;;;94.95;40.30;;;4.20;99.90;;;;;;4777244;30;20115;-82
2022/01/25 07:44:15;;;;;;;85.55;38.75;;;4.10;99.90;;;;;;4773911;30;20092;-82
2022/01/25 07:46:41;;;;;;;;;;;4.10;99.90;;;;;;4763569;30;20075;-82
2022/01/25 07:49:07;;;;;;;83.87;37.50;;;4.10;99.90;;;;;;4780612;30;20117;-82
2022/01/25 07:51:35;;;;;;;85.65;38.22;;;4.20;99.90;;;;;;4765820;30;20043;-82
2022/01/25 07:54:01;;;;;;;80.13;36.88;;;4.20;99.90;;;;;;4795737;29;20126;-82
2022/01/25 07:56:27;;;;;;;81.07;37.30;;;4.10;99.90;;;;;;4798715;30;20035;-82
2022/01/25 07:58:53;;;;;;;69.38;34.47;;;4.10;99.90;;;;;;4769341;30;20088;-82
2022/01/25 08:01:21;;;;;;;72.20;34.13;;;4.10;99.90;;;;;;4769007;30;20223;-82
2022/01/25 08:03:47;;;;;;;66.90;32.95;;;4.10;99.90;;;;;;4798353;30;20054;-82
2022/01/25 08:06:13;;;;;;;61.13;30.67;;;4.10;99.90;;;;;;4781882;30;20035;-81
2022/01/25 08:08:40;;;;;;;74.70;35.05;;;4.10;99.90;;;;;;4783864;30;20112;-81
2022/01/25 08:11:06;;;;;;;75.68;33.50;;;4.10;99.90;;;;;;4768798;30;20035;-81
2022/01/25 08:13:32;;;;;;;68.05;31.45;;;4.20;99.90;;;;;;4783200;30;20051;-81
2022/01/25 08:15:57;;;;;;;68.90;33.28;;;4.10;99.90;;;;;;4783364;30;20039;-81
2022/01/25 08:18:23;;;;;;;69.47;33.45;;;4.20;99.90;;;;;;4783628;30;20382;-81
2022/01/25 08:20:49;;;;;;;69.90;33.42;;;4.20;99.90;;;;;;4768850;30;20230;-81
2022/01/25 08:23:15;;;;;;;72.32;33.63;;;4.30;99.90;;;;;;4782871;30;20035;-82
2022/01/25 08:25:41;;;;;;;68.78;32.85;;;4.30;99.90;;;;;;4767846;30;20100;-82
2022/01/25 08:28:06;;;;;;;59.10;29.23;;;4.40;99.90;;;;;;4767960;30;20035;-82
2022/01/25 08:30:32;;;;;;;65.80;31.52;;;4.50;99.90;;;;;;4797917;30;20051;-82
2022/01/25 08:32:58;;;;;;;72.80;32.33;;;4.50;99.90;;;;;;4783070;30;20043;-82
2022/01/25 08:35:24;;;;;;;67.63;29.75;;;4.70;99.90;;;;;;4765272;30;20118;-82
2022/01/25 08:37:50;;;;;;;52.88;25.63;;;4.80;99.90;;;;;;4783169;30;20114;-82
2022/01/25 08:40:16;;;;;;;47.13;24.75;;;4.80;99.90;;;;;;4783156;30;20058;-82
2022/01/25 08:42:42;;;;;;;55.78;25.85;;;4.80;99.90;;;;;;4768189;30;20047;-82
2022/01/25 08:45:09;;;;;;;55.13;25.92;;;4.80;99.90;;;;;;4767919;29;20050;-82
2022/01/25 08:47:36;;;;;;;47.05;22.77;;;4.90;99.90;;;;;;4767444;30;20646;-81
2022/01/25 08:50:04;;;;;;;37.75;20.85;;;4.90;99.90;;;;;;4797785;30;20039;-81
2022/01/25 08:52:29;;;;;;;41.50;21.77;;;4.90;99.90;;;;;;4797787;30;20092;-81
2022/01/25 08:54:55;;;;;;;43.47;21.40;;;5.00;99.90;;;;;;4797665;30;20126;-81
2022/01/25 08:57:21;;;;;;;47.97;22.00;;;5.00;99.80;;;;;;4768208;30;20035;-82
2022/01/25 08:59:47;;;;;;;52.28;24.33;;;4.90;99.80;;;;;;4797516;30;20114;-81
2022/01/25 09:02:13;;;;;;;36.85;19.23;;;5.00;99.90;;;;;;4797506;30;20046;-81
2022/01/25 09:04:39;;;;;;;37.05;18.63;;;5.00;99.80;;;;;;4767757;30;20122;-81
2022/01/25 09:07:04;;;;;;;34.20;18.48;;;5.10;99.60;;;;;;4781758;30;20409;-82
2022/01/25 09:09:30;;;;;;;31.05;17.27;;;5.00;99.90;;;;;;4797357;30;20054;-82
2022/01/25 09:11:57;;;;;;;26.67;16.27;;;5.10;99.70;;;;;;4797306;30;20234;-81
2022/01/25 09:14:23;;;;;;;29.47;15.30;;;5.20;99.70;;;;;;4782804;30;20042;-81
2022/01/25 09:16:49;;;;;;;25.87;13.47;;;5.30;99.60;;;;;;4767739;30;20360;-81
2022/01/25 09:19:16;;;;;;;29.17;15.73;;;5.30;98.80;;;;;;4797321;30;20321;-82
2022/01/25 09:21:42;;;;;;;35.25;20.13;;;5.30;99.30;;;;;;4767625;30;20326;-82
2022/01/25 09:24:08;;;;;;;31.38;17.33;;;5.40;99.20;;;;;;4797389;30;20086;-82
2022/01/25 09:26:34;;;;;;;29.60;16.80;;;5.40;99.00;;;;;;4764549;30;20104;-81
2022/01/25 09:29:00;;;;;;;28.35;15.95;;;5.50;98.50;;;;;;4767611;30;20047;-81
2022/01/25 09:31:27;;;;;;;28.20;15.70;;;5.50;98.60;;;;;;4764468;30;20039;-81
2022/01/25 09:33:52;;;;;;;27.27;16.17;;;5.60;98.40;;;;;;4764301;30;20231;-81
2022/01/25 09:36:18;;;;;;;30.15;15.35;;;5.70;98.30;;;;;;4781824;30;20080;-81
2022/01/25 09:38:44;;;;;;;27.33;14.02;;;5.70;98.30;;;;;;4796994;30;20081;-82
2022/01/25 09:41:10;;;;;;;23.75;13.45;;;5.80;97.70;;;;;;4767364;30;20031;-83
2022/01/25 09:43:36;;;;;;;24.85;14.27;;;5.90;97.50;;;;;;4767032;30;20055;-82
2022/01/25 09:46:02;;;;;;;25.58;14.60;;;5.80;97.30;;;;;;4781845;29;20071;-81
2022/01/25 09:48:28;;;;;;;28.65;14.73;;;5.80;97.70;;;;;;4766264;30;20069;-81
2022/01/25 09:50:57;;;;;;;28.48;15.13;;;5.90;97.40;;;;;;4781849;30;20346;-81
2022/01/25 09:53:25;;;;;;;27.20;14.50;;;5.90;97.20;;;;;;4796695;30;20051;-82
2022/01/25 09:55:51;;;;;;;25.58;14.68;;;6.00;97.00;;;;;;4766198;30;20089;-82
2022/01/25 09:58:17;;;;;;;26.48;13.77;;;6.10;96.70;;;;;;4781841;30;20072;-82
2022/01/25 10:00:46;;;;;;;23.38;13.98;;;6.10;96.70;;;;;;4796386;30;20035;-82
2022/01/25 10:03:30;;;;;;;22.20;13.65;;;6.10;96.70;;;;;;4766990;30;20079;-82
2022/01/25 10:05:59;;;;;;;25.60;14.38;;;6.10;96.50;;;;;;4796523;30;20027;-82
2022/01/25 10:08:29;;;;;;;23.85;14.77;;;6.30;96.70;;;;;;4764936;30;20050;-82
2022/01/25 10:10:55;;;;;;;24.08;11.75;;;6.50;96.20;;;;;;4776996;30;20071;-82
2022/01/25 10:13:33;;;;;;;24.42;12.38;;;6.60;95.80;;;;;;4795523;30;20035;-82
2022/01/25 10:16:11;;;;;;;27.15;13.38;;;6.60;95.40;;;;;;4778990;30;20092;-81
2022/01/25 10:18:56;;;;;;;21.80;12.20;;;6.70;95.00;;;;;;4773135;30;20046;-82
2022/01/25 10:21:51;;;;;;;20.52;12.98;;;6.60;95.20;;;;;;4787829;30;20227;-82
2022/01/25 10:24:19;;;;;;;24.90;13.90;;;6.50;94.90;;;;;;4764974;30;20036;-82
2022/01/25 10:27:01;;;;;;;28.52;12.60;;;6.50;95.20;;;;;;4780387;30;20322;-82
2022/01/25 10:29:34;;;;;;;24.98;14.15;;;6.50;95.20;;;;;;4796426;30;20416;-82
2022/01/25 10:32:08;;;;;;;32.05;15.60;;;6.60;95.40;;;;;;4796011;30;20051;-82
2022/01/25 10:34:40;;;;;;;23.52;12.20;;;6.50;95.40;;;;;;4794983;30;20293;-82
2022/01/25 10:37:12;;;;;;;35.83;13.82;;;6.60;94.90;;;;;;4788083;30;20065;-83
2022/01/25 10:39:41;;;;;;;27.42;13.15;;;6.70;95.20;;;;;;4779487;30;20114;-83
2022/01/25 10:42:12;;;;;;;24.85;14.55;;;6.70;95.10;;;;;;4795111;30;20035;-83
2022/01/25 10:44:49;;;;;;;24.88;14.07;;;6.80;94.70;;;;;;4794826;30;20043;-81
2022/01/25 10:47:16;;;;;;;;;;;6.90;94.40;;;;;;4758034;30;20066;-82
2022/01/25 10:49:50;;;;;;;23.77;11.98;;;6.80;94.80;;;;;;4779224;30;20085;-82
2022/01/25 10:52:27;;;;;;;23.15;12.18;;;6.90;94.50;;;;;;4775478;30;20043;-81
2022/01/25 10:54:54;;;;;;;23.08;11.93;;;6.80;94.00;;;;;;4789833;30;20222;-83
2022/01/25 10:57:23;;;;;;;22.77;12.82;;;6.80;94.20;;;;;;4774549;30;20031;-83
2022/01/25 10:59:58;;;;;;;20.33;11.40;;;6.80;94.10;;;;;;4794714;30;20038;-83
2022/01/25 11:02:24;;;;;;;22.83;11.98;;;6.60;94.10;;;;;;4761213;30;20114;-84
2022/01/25 11:04:51;;;;;;;19.40;11.75;;;6.60;94.90;;;;;;4764821;30;20062;-83
2022/01/25 11:07:18;;;;;;;19.15;12.25;;;6.60;94.50;;;;;;4778620;30;20038;-83
2022/01/25 11:09:47;;;;;;;26.73;14.45;;;6.50;95.00;;;;;;4780113;30;20039;-84
2022/01/25 11:12:18;;;;;;;25.33;12.60;;;6.50;95.10;;;;;;4784653;29;20078;-82
2022/01/25 11:14:51;;;;;;;24.70;13.70;;;6.50;95.00;;;;;;4794295;30;20031;-82
2022/01/25 11:17:18;;;;;;;21.50;13.23;;;6.30;95.00;;;;;;4794528;30;20027;-82
2022/01/25 11:19:44;;;;;;;;;;;6.20;95.20;;;;;;4777592;30;20031;-82
2022/01/25 11:22:11;;;;;;;24.50;13.80;;;6.10;95.50;;;;;;4763259;30;20175;-82
2022/01/25 11:24:37;;;;;;;;;;;6.00;96.00;;;;;;4779981;30;20096;-82
2022/01/25 11:27:05;;;;;;;23.98;14.75;;;6.00;96.50;;;;;;4794912;30;19913;-82
2022/01/25 11:29:34;;;;;;;24.90;13.18;;;6.00;96.50;;;;;;4781060;30;20905;-83
2022/01/25 11:32:20;;;;;;;29.33;15.35;;;5.90;96.70;;;;;;4782985;30;20050;-82
2022/01/25 11:34:48;;;;;;;29.52;15.27;;;5.90;97.00;;;;;;4764442;30;20081;-82
2022/01/25 11:37:14;;;;;;;27.27;14.55;;;5.90;97.20;;;;;;4795503;30;20039;-82
2022/01/25 11:39:43;;;;;;;28.57;16.10;;;5.80;97.50;;;;;;4751106;30;20414;-82
2022/01/25 11:42:15;;;;;;;29.40;15.50;;;5.80;97.80;;;;;;4794803;30;20080;-82
2022/01/25 11:44:56;;;;;;;25.38;15.23;;;5.80;97.80;;;;;;4797397;30;20111;-82
2022/01/25 11:47:35;;;;;;;26.98;15.05;;;5.90;97.80;;;;;;4774362;30;20354;-82
2022/01/25 11:50:07;;;;;;;28.15;16.55;;;5.80;97.50;;;;;;4789144;30;20041;-82
2022/01/25 11:52:34;;;;;;;26.25;15.52;;;5.80;97.70;;;;;;4794788;30;20337;-82
2022/01/25 11:55:22;;;;;;;29.17;15.73;;;5.70;97.60;;;;;;4783155;30;20354;-83
2022/01/25 11:58:11;;;;;;;28.08;15.48;;;5.60;97.20;;;;;;4789884;30;20038;-82
2022/01/25 12:00:48;;;;;;;24.50;14.38;;;5.70;97.70;;;;;;4782701;30;20100;-83
2022/01/25 12:04:01;;;;;;;26.25;15.85;;;5.70;97.60;;;;;;4792965;30;20268;-83
2022/01/25 12:06:36;;;;;;;28.35;15.70;;;5.50;97.80;;;;;;4743904;30;20052;-81
2022/01/25 12:11:46;;;;;;;33.88;15.00;;;5.50;97.80;;;;;;4726390;30;20375;-82
2022/01/25 12:14:27;;;;;;;27.58;15.30;;;5.40;98.00;;;;;;4741802;30;20081;-82
2022/01/25 12:16:55;;;;;;;26.17;14.45;;;5.40;98.10;;;;;;4724871;30;20257;-82
2022/01/25 12:19:51;;;;;;;28.48;15.45;;;5.20;98.00;;;;;;4729156;30;20033;-82
2022/01/25 12:22:48;;;;;;;29.00;15.18;;;5.20;98.30;;;;;;4727089;30;20060;-82
2022/01/25 12:25:26;;;;;;;28.20;15.38;;;5.30;98.40;;;;;;4743082;30;20051;-82
2022/01/25 12:27:59;;;;;;;28.65;16.35;;;5.20;98.30;;;;;;4727050;30;20044;-83
2022/01/25 12:30:41;;;;;;;26.75;15.90;;;5.30;98.60;;;;;;4743450;30;20033;-82
2022/01/25 12:33:25;;;;;;;32.05;14.73;;;5.40;98.40;;;;;;4725169;30;20055;-82
2022/01/25 12:36:00;;;;;;;27.67;14.85;;;5.30;98.00;;;;;;4738719;30;20260;-82
2022/01/25 12:38:37;;;;;;;28.40;14.48;;;5.30;98.20;;;;;;4708662;30;20048;-82
2022/01/25 12:41:22;;;;;;;26.38;15.27;;;5.30;98.30;;;;;;4745792;30;20305;-82
2022/01/25 12:44:02;;;;;;;25.38;15.05;;;5.30;98.20;;;;;;4793547;30;20134;-83
2022/01/25 12:46:40;;;;;;;28.15;14.93;;;5.40;98.40;;;;;;4793025;29;20062;-83
2022/01/25 12:49:11;;;;;;;29.38;15.68;;;5.40;98.20;;;;;;4778775;30;20050;-82
2022/01/25 12:51:39;;;;;;;26.80;15.43;;;5.50;98.20;;;;;;4797208;30;20035;-82
2022/01/25 12:54:15;;;;;;;34.33;15.65;;;5.50;98.00;;;;;;4792303;30;20035;-82
2022/01/25 12:56:46;;;;;;;32.40;15.93;;;5.50;98.10;;;;;;4776870;30;20024;-82
2022/01/25 12:59:18;;;;;;;27.30;14.98;;;5.50;97.90;;;;;;4791899;30;20039;-82
2022/01/25 13:01:46;;;;;;;25.92;15.15;;;5.50;98.00;;;;;;4791295;30;20027;-84
2022/01/25 13:04:12;;;;;;;27.80;14.88;;;5.50;98.10;;;;;;4765482;30;20051;-83
2022/01/25 13:06:41;;;;;;;31.42;15.60;;;5.50;98.10;;;;;;4781134;30;20027;-83
2022/01/25 13:12:09;;;;;;;29.17;15.55;;;5.60;97.90;;;;;;4795218;29;20134;-83
2022/01/25 13:15:03;;;;;;;28.70;15.43;;;5.60;97.80;;;;;;4782423;30;20027;-83
2022/01/25 13:17:29;;;;;;;36.17;17.52;;;5.60;97.70;;;;;;4796947;30;20031;-83
2022/01/25 13:20:02;;;;;;;27.40;15.88;;;5.60;97.80;;;;;;4767833;30;20035;-83
2022/01/25 13:22:40;;;;;;;33.90;16.92;;;5.60;97.70;;;;;;4792118;30;20027;-83
2022/01/25 13:27:54;;;;;;;38.45;17.70;;;5.50;98.00;;;;;;4794611;30;20031;-83
2022/01/25 13:30:41;;;;;;;34.13;16.60;;;5.60;98.10;;;;;;4797196;30;20047;-83
2022/01/25 13:33:12;;;;;;;30.95;16.13;;;5.60;98.10;;;;;;4797094;30;20027;-83
2022/01/25 13:35:41;;;;;;;38.63;18.50;;;5.60;98.10;;;;;;4797403;30;20041;-83
2022/01/25 13:38:22;;;;;;;32.67;17.63;;;5.50;98.00;;;;;;4782316;30;20038;-83
2022/01/25 13:46:43;;;;;;;32.65;17.35;;;5.60;98.10;;;;;;4728011;30;20064;-83
2022/01/25 13:49:12;;;;;;;28.35;16.52;;;5.50;98.10;;;;;;4742178;30;20045;-83
2022/01/25 13:51:53;;;;;;;34.75;17.92;;;5.60;98.20;;;;;;4720048;30;20041;-83
2022/01/25 13:54:25;;;;;;;40.28;17.05;;;5.50;98.30;;;;;;4722843;30;20270;-83
2022/01/25 13:56:52;;;;;;;31.38;16.95;;;5.40;98.20;;;;;;4728076;30;20033;-83
2022/01/25 13:59:21;;;;;;;29.17;16.08;;;5.40;98.40;;;;;;4728158;30;20241;-82
2022/01/25 14:01:47;;;;;;;32.80;17.45;;;5.40;98.60;;;;;;4727929;30;20124;-82
2022/01/25 14:04:33;;;;;;;33.45;18.50;;;5.40;98.60;;;;;;4728165;30;20089;-83
2022/01/25 14:07:01;;;;;;;31.50;16.88;;;5.40;98.70;;;;;;4742487;30;20201;-84
2022/01/25 14:09:36;;;;;;;30.02;16.00;;;5.40;98.90;;;;;;4728053;30;20052;-83
2022/01/25 14:23:19;;;;;;;37.10;18.10;;;5.30;99.10;;;;;;4790553;30;20043;-83
2022/01/25 14:25:44;;;;;;;33.75;17.10;;;5.20;99.10;;;;;;4776207;30;20039;-83
2022/01/25 14:28:21;;;;;;;33.58;19.40;;;5.20;99.30;;;;;;4786328;30;20327;-83
2022/01/25 14:30:50;;;;;;;39.97;18.00;;;5.30;99.40;;;;;;4788305;30;20218;-83
2022/01/25 14:33:20;;;;;;;34.00;17.38;;;5.40;99.10;;;;;;4787617;30;20143;-83
2022/01/25 14:35:53;;;;;;;35.20;18.33;;;5.40;99.10;;;;;;4793397;30;20027;-83
2022/01/25 14:38:27;;;;;;;34.67;17.02;;;5.50;99.10;;;;;;4795500;30;20035;-84
2022/01/25 14:41:07;;;;;;;35.03;17.67;;;5.50;99.10;;;;;;4781737;30;20031;-82
2022/01/25 14:43:36;;;;;;;31.98;17.20;;;5.40;98.90;;;;;;4795806;30;20039;-84
2022/01/25 14:46:14;;;;;;;35.35;17.08;;;5.40;98.90;;;;;;4796313;29;20124;-84
2022/01/25 14:48:46;;;;;;;33.90;18.20;;;5.40;99.10;;;;;;4770904;30;20054;-83
2022/01/25 14:51:12;;;;;;;35.17;19.00;;;5.40;99.00;;;;;;4767076;30;20031;-84
2022/01/25 14:53:42;;;;;;;37.87;17.83;;;5.40;99.20;;;;;;4776961;30;20035;-84
2022/01/25 14:56:13;;;;;;;42.60;17.92;;;5.30;99.20;;;;;;4771585;30;20275;-83
2022/01/25 15:01:22;;;;;;;36.70;17.73;;;5.30;99.40;;;;;;4790905;30;20031;-84
2022/01/25 15:03:49;;;;;;;36.58;19.08;;;5.30;99.50;;;;;;4776986;30;20038;-84
2022/01/25 15:06:18;;;;;;;33.33;18.08;;;5.30;99.60;;;;;;4765006;30;20038;-84
2022/01/25 15:08:56;;;;;;;32.60;17.67;;;5.30;99.70;;;;;;4768850;30;20346;-84
2022/01/25 15:11:29;;;;;;;37.05;18.23;;;5.30;99.50;;;;;;4785764;30;20371;-84
2022/01/25 15:14:06;;;;;;;31.25;17.70;;;5.20;99.60;;;;;;4778643;30;20035;-84
2022/01/25 15:16:31;;;;;;;34.65;17.35;;;5.10;99.80;;;;;;4776879;30;20110;-84
2022/01/25 15:18:57;;;;;;;34.30;18.45;;;5.10;99.90;;;;;;4774702;30;20043;-84
2022/01/25 15:21:23;;;;;;;38.28;18.70;;;5.10;99.90;;;;;;4768809;30;20094;-83
2022/01/25 15:23:50;;;;;;;33.88;18.65;;;5.20;99.90;;;;;;4760073;30;20258;-82
2022/01/25 15:26:18;;;;;;;32.10;17.73;;;5.20;99.90;;;;;;4769116;30;20359;-82
2022/01/25 15:28:51;;;;;;;35.42;19.02;;;5.20;99.90;;;;;;4792156;30;20038;-82
2022/01/25 15:31:19;;;;;;;36.75;17.92;;;5.30;99.80;;;;;;4782827;30;20390;-83
2022/01/25 15:33:48;;;;;;;41.45;20.83;;;5.30;99.70;;;;;;4795604;30;20035;-82
2022/01/25 15:36:16;;;;;;;34.10;18.40;;;5.20;99.70;;;;;;4776049;30;20384;-83
2022/01/25 15:38:45;;;;;;;33.38;17.85;;;5.20;99.50;;;;;;4778402;30;20043;-82
2022/01/25 15:41:12;;;;;;;39.35;21.00;;;5.30;99.60;;;;;;4785739;30;20039;-82
2022/01/25 15:43:47;;;;;;;;;;;5.30;99.60;;;;;;4785519;30;20043;-83
2022/01/25 15:46:21;;;;;;;39.63;20.67;;;5.30;99.60;;;;;;4797862;29;20251;-82
2022/01/25 15:48:47;;;;;;;38.58;20.95;;;5.40;99.50;;;;;;4796052;30;20326;-83
2022/01/25 15:51:13;;;;;;;36.78;18.98;;;5.40;99.40;;;;;;4798038;30;20378;-82
2022/01/25 15:53:39;;;;;;;38.30;19.50;;;5.30;99.30;;;;;;4763558;30;20055;-82
2022/01/25 15:56:11;;;;;;;49.03;21.25;;;5.30;99.40;;;;;;4792746;30;20072;-82
2022/01/25 15:58:37;;;;;;;48.17;19.58;;;5.20;99.60;;;;;;4779454;30;20031;-83
2022/01/25 16:01:03;;;;;;;33.95;19.20;;;5.20;99.90;;;;;;4763213;30;20484;-83
2022/01/25 16:03:32;;;;;;;38.22;20.50;;;5.20;99.70;;;;;;4763850;30;20046;-83
2022/01/25 16:05:58;;;;;;;44.80;21.20;;;5.20;99.60;;;;;;4750757;30;20084;-83
2022/01/25 16:08:24;;;;;;;39.15;20.52;;;5.30;99.70;;;;;;4786083;29;20313;-84
2022/01/25 16:10:51;;;;;;;38.72;19.75;;;5.30;99.90;;;;;;4774870;30;20102;-83
2022/01/25 16:13:16;;;;;;;40.58;20.83;;;5.30;99.80;;;;;;4766876;30;20035;-83
2022/01/25 16:15:43;;;;;;;41.05;21.00;;;5.30;99.80;;;;;;4780164;30;20071;-83
2022/01/25 16:18:08;;;;;;;45.78;22.23;;;5.20;99.80;;;;;;4779373;30;20131;-84
2022/01/25 16:20:43;;;;;;;41.53;21.75;;;5.20;99.90;;;;;;4766502;30;20039;-83
2022/01/25 16:23:10;;;;;;;37.20;20.48;;;5.20;99.90;;;;;;4779039;30;20326;-82
2022/01/25 16:25:37;;;;;;;40.88;21.48;;;5.20;99.90;;;;;;4766970;30;20054;-83
2022/01/25 16:28:04;;;;;;;45.10;23.02;;;5.20;99.90;;;;;;4776652;30;20035;-83
2022/01/25 16:30:31;;;;;;;36.88;20.17;;;5.10;99.90;;;;;;4760913;30;20050;-82
2022/01/25 16:32:57;;;;;;;42.65;21.73;;;5.10;99.90;;;;;;4784998;30;20373;-82
2022/01/25 16:35:23;;;;;;;41.95;21.42;;;5.10;99.90;;;;;;4750902;30;20040;-82
2022/01/25 16:37:53;;;;;;;43.13;20.13;;;5.10;99.90;;;;;;4775528;30;20375;-82
2022/01/25 16:40:20;;;;;;;40.35;21.08;;;5.00;99.90;;;;;;4790461;30;20039;-82
2022/01/25 16:42:47;;;;;;;43.17;23.02;;;5.10;99.90;;;;;;4767850;30;20039;-82
2022/01/25 16:45:15;;;;;;;37.55;20.52;;;5.20;99.90;;;;;;4775046;29;20273;-82
2022/01/25 16:47:41;;;;;;;47.70;22.25;;;5.20;99.90;;;;;;4774417;30;20059;-82
2022/01/25 16:50:13;;;;;;;40.75;21.30;;;5.20;99.90;;;;;;4794856;30;20330;-81
2022/01/25 16:52:39;;;;;;;42.03;21.20;;;5.20;99.90;;;;;;4792762;30;20350;-82
2022/01/25 16:55:08;;;;;;;45.05;22.65;;;5.20;99.90;;;;;;4780027;30;20382;-83
2022/01/25 16:57:34;;;;;;;40.78;21.88;;;5.20;99.90;;;;;;4765274;30;20133;-82
2022/01/25 17:00:00;;;;;;;41.83;21.87;;;5.10;99.90;;;;;;4792031;30;20031;-83
2022/01/25 17:02:26;;;;;;;43.45;21.17;;;5.10;99.90;;;;;;4774833;30;20049;-83
2022/01/25 17:04:53;;;;;;;43.05;21.70;;;5.20;99.90;;;;;;4772167;30;20227;-83
2022/01/25 17:07:20;;;;;;;41.10;21.35;;;5.10;99.90;;;;;;4777750;30;20043;-83
2022/01/25 17:09:45;;;;;;;45.33;22.70;;;5.20;99.90;;;;;;4760840;30;20039;-83
2022/01/25 17:12:11;;;;;;;45.55;24.92;;;5.10;99.90;;;;;;4777733;30;20058;-83
2022/01/25 17:14:37;;;;;;;47.95;25.13;;;5.10;99.90;;;;;;4789666;30;20115;-83
2022/01/25 17:17:03;;;;;;;51.72;24.52;;;5.20;99.90;;;;;;4760411;30;20064;-83
2022/01/25 17:19:29;;;;;;;48.47;23.73;;;5.10;99.90;;;;;;4764847;30;20110;-83
2022/01/25 17:21:55;;;;;;;46.10;23.45;;;5.10;99.90;;;;;;4762252;30;20050;-83
2022/01/25 17:24:24;;;;;;;52.58;24.92;;;5.10;99.90;;;;;;4763152;30;20043;-83
2022/01/25 17:26:52;;;;;;;45.90;24.52;;;5.00;99.90;;;;;;4774840;30;20051;-82
2022/01/25 17:29:18;;;;;;;;;;;5.10;99.90;;;;;;4794957;30;20365;-82
2022/01/25 17:31:45;;;;;;;47.20;23.05;;;5.10;99.90;;;;;;4776398;30;19940;-82
2022/01/25 17:34:11;;;;;;;;;;;5.00;99.90;;;;;;4781366;30;20035;-83
2022/01/25 17:36:38;;;;;;;52.13;22.63;;;5.10;99.90;;;;;;4765385;30;19909;-83